Time,TemperatureF,DewpointF,PressureIn,WindDirection,WindDirectionDegrees,WindSpeedMPH,WindSpeedGustMPH,Humidity,HourlyPrecipIn,Conditions,Clouds,dailyrainin,SoftwareType,DateUTC
2013-04-11 00:02:00,42.0,38.0,-100.00,North,350,1.0,2.0,85,-99.99,,,-99.99,,2013-04-11 07:02:00,
2013-04-11 00:10:00,40.0,37.0,-100.00,ESE,115,2.0,5.0,88,-99.99,,,-99.99,,2013-04-11 07:10:00,
2013-04-11 01:02:00,40.0,37.0,-100.00,ESE,115,2.0,5.0,88,-99.99,,,-99.99,,2013-04-11 08:02:00,
2013-04-11 03:10:00,40.0,33.0,-100.00,SE,125,7.0,13.0,75,-99.99,,,-99.99,,2013-04-11 10:10:00,
2013-04-11 04:10:00,39.0,33.0,-100.00,SE,130,6.0,9.0,78,-99.99,,,-99.99,,2013-04-11 11:10:00,
2013-04-11 05:02:00,39.0,33.0,-100.00,SE,130,6.0,9.0,78,-99.99,,,-99.99,,2013-04-11 12:02:00,
2013-04-11 05:10:00,38.0,33.0,-100.00,ESE,115,5.0,8.0,82,-99.99,,,-99.99,,2013-04-11 12:10:00,
2013-04-11 06:02:00,38.0,33.0,-100.00,ESE,115,5.0,8.0,82,-99.99,,,-99.99,,2013-04-11 13:02:00,
2013-04-11 06:10:00,38.0,34.0,-100.00,SE,135,3.0,7.0,85,-99.99,,,-99.99,,2013-04-11 13:10:00,
2013-04-11 07:02:00,38.0,34.0,-100.00,SE,135,3.0,7.0,85,-99.99,,,-99.99,,2013-04-11 14:02:00,
2013-04-11 09:10:00,46.0,37.0,-100.00,SSE,150,7.0,14.0,70,-99.99,,,-99.99,,2013-04-11 16:10:00,
2013-04-11 10:02:00,46.0,37.0,-100.00,SSE,150,7.0,14.0,70,-99.99,,,-99.99,,2013-04-11 17:02:00,
2013-04-11 10:10:00,48.0,37.0,-100.00,South,180,6.0,12.0,65,-99.99,,,-99.99,,2013-04-11 17:10:00,
2013-04-11 11:02:00,48.0,37.0,-100.00,South,180,6.0,12.0,65,-99.99,,,-99.99,,2013-04-11 18:02:00,
2013-04-11 11:10:00,51.0,37.0,-100.00,South,180,6.0,13.0,58,-99.99,,,-99.99,,2013-04-11 18:10:00,
2013-04-11 12:03:00,51.0,37.0,-100.00,South,180,6.0,13.0,58,-99.99,,,-99.99,,2013-04-11 19:03:00,
2013-04-11 12:10:00,53.0,36.0,-100.00,SSE,150,7.0,15.0,52,-99.99,,,-99.99,,2013-04-11 19:10:00,
2013-04-11 13:02:00,53.0,36.0,-100.00,SSE,150,7.0,15.0,52,-99.99,,,-99.99,,2013-04-11 20:02:00,
2013-04-11 13:10:00,55.0,35.0,-100.00,South,175,8.0,15.0,46,-99.99,,,-99.99,,2013-04-11 20:10:00,
2013-04-11 14:02:00,55.0,35.0,-100.00,South,175,8.0,15.0,46,-99.99,,,-99.99,,2013-04-11 21:02:00,
2013-04-11 14:10:00,55.0,34.0,-100.00,South,190,2.0,6.0,44,-99.99,,,-99.99,,2013-04-11 21:10:00,
2013-04-11 15:03:00,55.0,34.0,-100.00,South,190,2.0,6.0,44,-99.99,,,-99.99,,2013-04-11 22:03:00,
2013-04-11 15:10:00,58.0,36.0,-100.00,South,175,2.0,10.0,43,-99.99,,,-99.99,,2013-04-11 22:10:00,
2013-04-11 16:03:00,58.0,36.0,-100.00,South,175,2.0,10.0,43,-99.99,,,-99.99,,2013-04-11 23:03:00,
2013-04-11 16:10:00,56.0,32.0,-100.00,South,185,7.0,13.0,39,-99.99,,,-99.99,,2013-04-11 23:10:00,
2013-04-11 17:02:00,56.0,32.0,-100.00,South,185,7.0,13.0,39,-99.99,,,-99.99,,2013-04-12 00:02:00,
2013-04-11 17:10:00,55.0,31.0,-100.00,SSW,205,1.0,13.0,39,-99.99,,,-99.99,,2013-04-12 00:10:00,
2013-04-11 18:02:00,55.0,31.0,-100.00,SSW,205,1.0,13.0,39,-99.99,,,-99.99,,2013-04-12 01:02:00,
2013-04-11 19:10:00,48.0,39.0,-100.00,SW,230,1.0,6.0,70,-99.99,,,-99.99,,2013-04-12 02:10:00,
2013-04-11 20:02:00,48.0,39.0,-100.00,SW,230,1.0,6.0,70,-99.99,,,-99.99,,2013-04-12 03:02:00,
2013-04-11 20:10:00,46.0,38.0,-100.00,SSE,150,2.0,5.0,73,-99.99,,,-99.99,,2013-04-12 03:10:00,
2013-04-11 21:03:00,46.0,38.0,-100.00,SSE,150,2.0,5.0,73,-99.99,,,-99.99,,2013-04-12 04:03:00,